Flight Track Log - Related Links

Times and Time Zones

All times are in EDT time to prevent confusion due to time zone crossing. See the UAL5942 flight status page for this flight to view local times or setup timezone preferences in your user account.

Time Position Orientation Groundspeed Altitude Reporting Facility
EDT Latitude Longitude Course Direction KTS MPH feet Rate Location/Type
Mon 07:53:29 PM 35.9008 -78.7742 22° Northeast 164 189 1,700  Level Washington Center
Mon 07:54:31 PM 35.9539 -78.7481 22° Northeast 197 227 4,000 2,361 Climbing Washington Center
Mon 07:55:31 PM 36.0192 -78.7200 19° North 223 257 6,500 2,650 Climbing Washington Center
Mon 07:56:31 PM 36.0950 -78.6947 15° North 252 290 9,300 2,550 Climbing Washington Center
Mon 07:57:31 PM 36.1750 -78.6694 14° North 285 328 11,600 1,900 Climbing Washington Center
Mon 07:58:31 PM 36.2569 -78.6444 14° North 323 372 13,100 1,800 Climbing Washington Center
Mon 07:59:31 PM 36.3622 -78.6097 15° North 340 391 15,200 1,950 Climbing Washington Center
Mon 08:00:31 PM 36.4631 -78.5775 14° North 351 404 17,000 1,450 Climbing Washington Center
Mon 08:01:31 PM 36.5642 -78.5400 17° North 362 417 18,100 1,450 Climbing Washington Center
Mon 08:02:31 PM 36.6672 -78.5050 15° North 368 423 19,900 1,450 Climbing Washington Center
Mon 08:03:31 PM 36.7708 -78.4544 21° North 381 438 21,000 550 Climbing Washington Center
Mon 08:04:31 PM 36.8728 -78.3700 34° Northeast 425 489 21,000  Level Washington Center
Mon 08:05:31 PM 36.9772 -78.2828 34° Northeast 432 497 21,000  Level Washington Center
Mon 08:06:31 PM 37.0725 -78.2081 32° Northeast 442 509 21,000  Level Washington Center
Mon 08:07:31 PM 37.1831 -78.1178 33° Northeast 442 509 21,000  Level Washington Center
Mon 08:08:31 PM 37.2850 -78.0350 33° Northeast 442 509 21,000  Level Washington Center
Mon 08:09:31 PM 37.3889 -77.9444 35° Northeast 442 509 21,000  Level Washington Center
Mon 08:10:31 PM 37.4886 -77.8636 33° Northeast 442 509 21,000  Level Washington Center
Mon 08:11:31 PM 37.5942 -77.7908 29° Northeast 437 503 21,000 -500 Level Washington Center
Mon 08:12:31 PM 37.7039 -77.7258 25° Northeast 432 497 20,000 -1,500 Descending Washington Center
Mon 08:13:31 PM 37.8092 -77.6631 25° Northeast 426 490 18,000 -1,900 Descending Washington Center
Mon 08:14:31 PM 37.9122 -77.6053 24° Northeast 414 476 16,200 -2,300 Descending Washington Center
Mon 08:15:31 PM 38.0092 -77.5472 25° Northeast 398 458 13,400 -2,400 Descending Washington Center
Mon 08:16:31 PM 38.0956 -77.5047 21° North 377 434 11,400 -1,550 Descending Washington Center
Mon 08:17:31 PM 38.1853 -77.4911 North 346 398 10,300 -1,150 Descending Washington Center
Mon 08:18:31 PM 38.2647 -77.4825 North 312 359 9,100 -1,350 Descending Washington Center
Mon 08:19:31 PM 38.3483 -77.4742 North 301 346 7,600 -1,500 Descending Washington Center
Mon 08:20:31 PM 38.4275 -77.4681 North 294 338 6,100 -1,400 Descending Washington Center
Mon 08:21:31 PM 38.5028 -77.4619 North 288 331 4,800 -1,000 Descending Washington Center
Mon 08:22:31 PM 38.5694 -77.4558 North 263 303 4,100 -350 Descending Washington Center
Mon 08:23:31 PM 38.6406 -77.4497 North 252 290 4,100 -50 Level Washington Center
Mon 08:24:31 PM 38.7094 -77.4433 North 252 290 4,000 -100 Descending Washington Center

Login

Don't have an account? Register now (free) for customized features, flight alerts, and more!